Accueil
METAR-TAF:

METAR-TAF

Aéroports :

Cranfield, Angleterre

latitude: 52-04N, longitude: 000-37W, altitude: 111 m

Observation

Le bulletin a été fait il y a 6 heures et 37 minutes, à 16:20 UTC
Vent 15 kt de ouest/sud-ouest, variant entre sud/sud-ouest et ouest
Température 23°C
Humidité 65%
Pression 1018 hPa
Visibilité 10 km ou plus
Nuages épars à une hauteur de 2700 ft

METAR: EGTC 201620Z 24015KT 210V280 9999 SCT027 23/16 Q1018

Heure: 23:57 (22:57 UTC)

Prévision

Le bulletin a été fait il y a 8 heures et 54 minutes, à 14:03 UTC
Prévision valable du 20 à 15 UTC au 20 à 18 UTC
Vent 10 kt de sud-ouest
Visibilité 10 km ou plus
Nuages épars à une hauteur de 2500 ft
Probabilité 30% :
Temporairement
du 20 à 15 UTC au 20 à 18 UTC
Vent 15 kt de ouest/sud-ouest avec des rafales jusqu'à 25 kt

TAF: EGTC 201403Z 2015/2018 22010KT 9999 SCT025 PROB30 TEMPO 2015/2018 25015G25KT

Observations et prévisions météorologiques de plus de 4000 aéroports (messages METAR et TAF).

Les stations disponibles sont représentées par des disques jaunes et rouges sur la carte.

Passer la souris dessus pour voir le nom de la station.

Cliquer dessus pour voir les observations et prévisions météorologiques.

Pour changer de carte: cliquez sur les boutons verts avec une croix noire pour zoomer, sur le bouton vert avec un tiret pour effectuer un zoom arrière, ou sur les flèches vertes pour les cartes adjacentes.


METAR-TAF: